| time (UTC) | temp F | wind direction | speed MPH | gust MPH | rain 1hr in | rain 24hr in | rain mn in | humidity % | barometer mb |
| 20260510150051 | 48 | 259 | 1.0 | 6.0 | 0.00 | 0.00 | 0.00 | 46 | 1015.3 |
| 20260510144545 | 48 | 297 | 1.0 | 6.0 | 0.00 | 0.00 | 0.00 | 47 | 1015.2 |
| 20260510143050 | 47 | 298 | 1.0 | 7.0 | 0.00 | 0.00 | 0.00 | 47 | 1015.0 |
| 20260510141544 | 47 | 279 | 1.0 | 6.0 | 0.00 | 0.00 | 0.00 | 50 | 1015.0 |
| 20260510140044 | 46 | 278 | 0.0 | 7.0 | 0.00 | 0.00 | 0.00 | 50 | 1015.0 |
| 20260510134538 | 46 | 308 | 1.0 | 8.0 | 0.00 | 0.00 | 0.00 | 51 | 1014.9 |
| 20260510133037 | 47 | 271 | 2.0 | 7.0 | 0.00 | 0.00 | 0.00 | 50 | 1014.8 |
| 20260510131536 | 46 | 295 | 2.0 | 7.0 | 0.00 | 0.00 | 0.00 | 48 | 1014.7 |
| 20260510130035 | 46 | 283 | 2.0 | 9.0 | 0.00 | 0.00 | 0.00 | 50 | 1014.6 |
| 20260510124554 | 46 | 289 | 3.0 | 8.0 | 0.00 | 0.00 | 0.00 | 50 | 1014.3 |
| 20260510123030 | 46 | 287 | 3.0 | 7.0 | 0.00 | 0.00 | 0.00 | 51 | 1014.0 |
| 20260510121528 | 46 | 253 | 1.0 | 7.0 | 0.00 | 0.00 | 0.00 | 50 | 1013.9 |
| 20260510120032 | 46 | 266 | 5.0 | 8.0 | 0.00 | 0.00 | 0.00 | 50 | 1013.6 |
| 20260510114525 | 46 | 284 | 3.0 | 7.0 | 0.00 | 0.00 | 0.00 | 49 | 1013.5 |
| 20260510113028 | 46 | 288 | 1.0 | 6.0 | 0.00 | 0.00 | 0.00 | 48 | 1013.3 |
| 20260510111529 | 47 | 268 | 1.0 | 6.0 | 0.00 | 0.00 | 0.00 | 49 | 1012.9 |
| 20260510110015 | 46 | 237 | 1.0 | 4.0 | 0.00 | 0.00 | 0.00 | 49 | 1012.8 |
| 20260510104513 | 45 | 311 | 3.0 | 7.0 | 0.00 | 0.00 | 0.00 | 50 | 1012.6 |
| 20260510103010 | 44 | 301 | 2.0 | 6.0 | 0.00 | 0.00 | 0.00 | 51 | 1012.4 |
| 20260510101509 | 43 | 165 | 1.0 | 6.0 | 0.00 | 0.00 | 0.00 | 53 | 1012.3 |
| 20260510100007 | 43 | 300 | 0.0 | 5.0 | 0.00 | 0.00 | 0.00 | 53 | 1012.2 |
| 20260510094506 | 43 | 295 | 2.0 | 6.0 | 0.00 | 0.00 | 0.00 | 50 | 1012.0 |
| 20260510093003 | 43 | 253 | 2.0 | 0.0 | 0.00 | 0.00 | 0.00 | 52 | 1011.8 |
| 20260510091608 | 43 | 283 | 2.0 | 7.0 | 0.00 | 0.00 | 0.00 | 51 | 1011.7 |
| 20260510090114 | 43 | 270 | 3.0 | 7.0 | 0.00 | 0.00 | 0.00 | 51 | 1011.5 |
| 20260510084600 | 44 | 268 | 3.0 | 7.0 | 0.00 | 0.00 | 0.00 | 52 | 1011.1 |
| 20260510083059 | 44 | 304 | 1.0 | 6.0 | 0.00 | 0.00 | 0.00 | 53 | 1010.9 |
| 20260510081553 | 44 | 278 | 3.0 | 7.0 | 0.00 | 0.00 | 0.00 | 53 | 1010.9 |
| 20260510080058 | 44 | 309 | 2.0 | 8.0 | 0.00 | 0.00 | 0.00 | 52 | 1010.7 |
| 20260510074548 | 44 | 293 | 5.0 | 8.0 | 0.00 | 0.00 | 0.00 | 52 | 1010.6 |
| 20260510073045 | 44 | 252 | 2.0 | 7.0 | 0.00 | 0.00 | 0.00 | 52 | 1010.3 |
| 20260510071543 | 45 | 339 | 1.0 | 9.0 | 0.00 | 0.00 | 0.00 | 52 | 1010.1 |
| 20260510070046 | 45 | 297 | 5.0 | 11.0 | 0.00 | 0.00 | 0.00 | 52 | 1009.8 |
| 20260510064557 | 45 | 300 | 4.0 | 6.0 | 0.00 | 0.00 | 0.00 | 51 | 1009.9 |
| 20260510063045 | 46 | 346 | 2.0 | 6.0 | 0.00 | 0.00 | 0.00 | 52 | 1009.7 |
| 20260510061546 | 46 | 335 | 5.0 | 9.0 | 0.00 | 0.00 | 0.00 | 51 | 1009.7 |
| 20260510060040 | 46 | 271 | 1.0 | 7.0 | 0.00 | 0.00 | 0.00 | 51 | 1009.6 |
| 20260510054534 | 45 | 259 | 1.0 | 3.0 | 0.00 | 0.00 | 0.00 | 54 | 1009.4 |
| 20260510053031 | 46 | 287 | 0.0 | 3.0 | 0.00 | 0.00 | 0.00 | 52 | 1009.1 |
| 20260510051529 | 46 | 307 | 1.0 | 5.0 | 0.00 | 0.00 | 0.00 | 50 | 1009.0 |
| 20260510050026 | 46 | 309 | 4.0 | 9.0 | 0.00 | 0.00 | 0.00 | 51 | 1008.7 |
| 20260510044531 | 46 | 310 | 7.0 | 11.0 | 0.00 | 0.00 | 0.00 | 50 | 1008.7 |
| 20260510043023 | 46 | 321 | 6.0 | 11.0 | 0.00 | 0.00 | 0.00 | 50 | 1008.4 |
| 20260510041521 | 47 | 309 | 5.0 | 11.0 | 0.00 | 0.00 | 0.00 | 50 | 1008.4 |
| 20260510040018 | 45 | 326 | 6.0 | 11.0 | 0.00 | 0.00 | 0.00 | 56 | 1008.2 |
| 20260510034515 | 45 | 38 | 8.0 | 12.0 | 0.00 | 0.00 | 0.00 | 57 | 1008.1 |
| 20260510033013 | 45 | 18 | 9.0 | 12.0 | 0.00 | 0.00 | 0.00 | 54 | 1007.7 |
| 20260510031511 | 47 | 23 | 11.0 | 14.0 | 0.00 | 0.00 | 0.00 | 53 | 1007.4 |
| 20260510030005 | 49 | 309 | 4.0 | 8.0 | 0.00 | 0.00 | 0.00 | 51 | 1007.1 |
| 20260510024502 | 49 | 296 | 3.0 | 5.0 | 0.00 | 0.00 | 0.00 | 51 | 1006.6 |
| 20260510023101 | 49 | 307 | 2.0 | 4.0 | 0.00 | 0.00 | 0.00 | 51 | 1006.4 |
| 20260510021558 | 50 | 269 | 1.0 | 5.0 | 0.00 | 0.00 | 0.00 | 51 | 1005.9 |
| 20260510020055 | 50 | 337 | 0.0 | 1.0 | 0.00 | 0.00 | 0.00 | 52 | 1005.7 |
| 20260510014552 | 50 | 305 | 0.0 | 4.0 | 0.00 | 0.00 | 0.00 | 51 | 1005.4 |
| 20260510013053 | 50 | 299 | 0.0 | 3.0 | 0.00 | 0.00 | 0.00 | 51 | 1004.9 |
| 20260510011547 | 50 | 338 | 1.0 | 6.0 | 0.00 | 0.00 | 0.00 | 51 | 1004.5 |
| 20260510010046 | 51 | 277 | 1.0 | 6.0 | 0.00 | 0.00 | 0.00 | 51 | 1004.2 |
| 20260510004546 | 51 | 277 | 5.0 | 8.0 | 0.00 | 0.00 | 0.00 | 50 | 1003.9 |
| 20260510003054 | 51 | 285 | 4.0 | 7.0 | 0.00 | 0.00 | 0.00 | 51 | 1003.7 |
| 20260510001546 | 52 | 271 | 4.0 | 8.0 | 0.00 | 0.00 | 0.00 | 50 | 1003.3 |
| 20260510000044 | 52 | 297 | 3.0 | 7.0 | 0.00 | 0.00 | 0.00 | 50 | 1002.9 |
| 20260509234559 | 52 | 278 | 3.0 | 8.0 | 0.00 | 0.00 | 0.00 | 49 | 1002.4 |
| 20260509233050 | 53 | 265 | 3.0 | 11.0 | 0.00 | 0.00 | 0.00 | 49 | 1002.0 |
| 20260509231601 | 53 | 284 | 2.0 | 6.0 | 0.00 | 0.00 | 0.00 | 49 | 1001.7 |
| 20260509230041 | 54 | 296 | 1.0 | 6.0 | 0.00 | 0.00 | 0.00 | 50 | 1001.5 |
| 20260509224540 | 53 | 252 | 1.0 | 7.0 | 0.00 | 0.00 | 0.00 | 51 | 1001.3 |
| 20260509223040 | 55 | 359 | 2.0 | 11.0 | 0.00 | 0.00 | 0.00 | 49 | 1001.0 |
| 20260509221540 | 57 | 323 | 1.0 | 8.0 | 0.00 | 0.00 | 0.00 | 47 | 1000.5 |
| 20260509220040 | 58 | 330 | 1.0 | 5.0 | 0.00 | 0.00 | 0.00 | 47 | 1000.1 |
| 20260509214538 | 59 | 177 | 1.0 | 12.0 | 0.00 | 0.00 | 0.00 | 44 | 1000.1 |
| 20260509213037 | 62 | 251 | 6.0 | 11.0 | 0.00 | 0.00 | 0.00 | 41 | 999.8 |
| 20260509211536 | 61 | 179 | 4.0 | 13.0 | 0.00 | 0.00 | 0.00 | 42 | 999.6 |
| 20260509210038 | 60 | 195 | 2.0 | 12.0 | 0.00 | 0.00 | 0.00 | 44 | 999.5 |
| 20260509204535 | 59 | 253 | 2.0 | 12.0 | 0.00 | 0.00 | 0.00 | 48 | 999.3 |
| 20260509203040 | 62 | 209 | 5.0 | 15.0 | 0.00 | 0.00 | 0.00 | 43 | 999.2 |
| 20260509201533 | 62 | 207 | 3.0 | 18.0 | 0.00 | 0.00 | 0.00 | 44 | 998.9 |
| 20260509200034 | 62 | 201 | 6.0 | 16.0 | 0.00 | 0.00 | 0.00 | 43 | 998.6 |
| 20260509194532 | 62 | 160 | 4.0 | 11.0 | 0.00 | 0.00 | 0.00 | 43 | 998.6 |
| 20260509193031 | 61 | 210 | 3.0 | 11.0 | 0.00 | 0.00 | 0.00 | 45 | 998.7 |
| 20260509191530 | 60 | 221 | 3.0 | 14.0 | 0.00 | 0.00 | 0.00 | 46 | 998.7 |
| 20260509190034 | 60 | 214 | 5.0 | 15.0 | 0.00 | 0.00 | 0.00 | 46 | 998.7 |
| 20260509184539 | 60 | 207 | 5.0 | 15.0 | 0.00 | 0.00 | 0.00 | 45 | 998.5 |
| 20260509183034 | 60 | 150 | 4.0 | 14.0 | 0.00 | 0.00 | 0.00 | 45 | 998.3 |
| 20260509181528 | 59 | 199 | 6.0 | 15.0 | 0.00 | 0.00 | 0.00 | 45 | 998.5 |
| 20260509180028 | 60 | 192 | 3.0 | 11.0 | 0.00 | 0.00 | 0.00 | 49 | 998.4 |
| 20260509174527 | 61 | 171 | 4.0 | 14.0 | 0.00 | 0.00 | 0.00 | 48 | 998.2 |
| 20260509173029 | 62 | 205 | 3.0 | 13.0 | 0.00 | 0.00 | 0.00 | 49 | 998.1 |
| 20260509171533 | 65 | 138 | 4.0 | 11.0 | 0.00 | 0.00 | 0.00 | 42 | 997.6 |
| 20260509170023 | 64 | 157 | 4.0 | 12.0 | 0.00 | 0.00 | 0.00 | 45 | 997.9 |
| 20260509164521 | 64 | 253 | 3.0 | 10.0 | 0.00 | 0.00 | 0.00 | 45 | 998.1 |
| 20260509163034 | 63 | 274 | 4.0 | 11.0 | 0.00 | 0.00 | 0.00 | 45 | 997.7 |
| 20260509161523 | 63 | 141 | 4.0 | 13.0 | 0.00 | 0.00 | 0.00 | 45 | 997.5 |
| 20260509160017 | 63 | 206 | 4.0 | 14.0 | 0.00 | 0.00 | 0.00 | 44 | 997.6 |
| 20260509154514 | 63 | 198 | 4.0 | 11.0 | 0.00 | 0.00 | 0.00 | 43 | 997.5 |
| 20260509153020 | 62 | 191 | 4.0 | 11.0 | 0.00 | 0.00 | 0.00 | 44 | 997.6 |
| 20260509151508 | 61 | 130 | 2.0 | 8.0 | 0.00 | 0.00 | 0.00 | 46 | 997.8 |